Time;durP1;ratioP1;P1;durP2;ratioP2;P2;SDS_P1;SDS_P2;PMS_P1;PMS_P2;Temp;Humidity;BMP_temperature;BMP_pressure;BME280_temperature;BME280_humidity;BME280_pressure;Samples;Min_cycle;Max_cycle;Signal;HPM_P1;HPM_P2
2021/10/05 00:00:29;;;;;;;16.60;10.20;;;;;;;10.91;100.00;96352.59;5046523;28;20974;-60
2021/10/05 00:03:15;;;;;;;16.77;10.45;;;;;;;10.75;100.00;96357.53;5037388;28;20119;-61
2021/10/05 00:06:00;;;;;;;18.85;10.40;;;;;;;10.96;100.00;96371.44;5045261;28;20541;-61
2021/10/05 00:08:46;;;;;;;18.42;11.05;;;;;;;10.99;100.00;96364.44;5039377;28;20540;-61
2021/10/05 00:11:33;;;;;;;18.33;11.15;;;;;;;10.74;100.00;96364.97;5036935;28;20029;-61
2021/10/05 00:14:19;;;;;;;18.58;11.43;;;;;;;10.77;100.00;96356.00;5045145;28;20109;-61
2021/10/05 00:17:05;;;;;;;17.30;10.60;;;;;;;10.88;100.00;96347.91;5051412;28;20037;-60
2021/10/05 00:19:51;;;;;;;19.42;11.13;;;;;;;10.94;100.00;96329.16;5051016;28;20037;-62
2021/10/05 00:22:37;;;;;;;20.83;11.70;;;;;;;10.82;100.00;96319.25;5050052;28;20060;-59
2021/10/05 00:25:23;;;;;;;22.23;11.07;;;;;;;10.70;100.00;96312.91;5035540;28;20653;-61
2021/10/05 00:28:08;;;;;;;23.83;12.40;;;;;;;10.62;100.00;96313.19;5045824;28;20040;-62
2021/10/05 00:30:54;;;;;;;24.20;12.82;;;;;;;10.54;100.00;96304.13;5064547;28;20111;-60
2021/10/05 00:33:40;;;;;;;23.45;12.88;;;;;;;10.57;100.00;96308.06;5067656;28;20040;-59
2021/10/05 00:36:25;;;;;;;22.83;12.75;;;;;;;10.57;100.00;96306.13;5051642;28;20053;-60
2021/10/05 00:39:11;;;;;;;22.73;12.60;;;;;;;10.54;100.00;96297.88;5033718;28;20056;-60
2021/10/05 00:41:57;;;;;;;25.88;13.88;;;;;;;10.47;100.00;96291.16;5020414;28;20127;-61
2021/10/05 00:44:43;;;;;;;24.08;12.68;;;;;;;10.45;100.00;96295.44;5053710;28;20055;-56
2021/10/05 00:47:28;;;;;;;27.95;14.60;;;;;;;10.41;100.00;96292.66;5050877;28;20409;-58
2021/10/05 00:50:15;;;;;;;26.38;14.10;;;;;;;10.41;100.00;96302.84;5044052;28;20110;-59
2021/10/05 00:53:01;;;;;;;27.17;13.73;;;;;;;10.40;100.00;96307.50;5055651;28;20048;-60
2021/10/05 00:55:47;;;;;;;28.73;14.98;;;;;;;10.44;100.00;96300.13;5035799;28;20048;-62
2021/10/05 00:58:32;;;;;;;28.67;14.45;;;;;;;10.43;100.00;96297.78;5065623;28;20053;-61
2021/10/05 01:01:18;;;;;;;31.42;14.93;;;;;;;10.41;100.00;96289.16;5049472;28;20044;-58
2021/10/05 01:04:04;;;;;;;33.90;15.00;;;;;;;10.43;100.00;96300.50;5050099;28;20124;-61
2021/10/05 01:07:00;;;;;;;33.67;14.43;;;;;;;10.41;100.00;96284.44;5056719;28;20131;-61
2021/10/05 01:09:45;;;;;;;31.85;15.73;;;;;;;10.42;100.00;96277.78;5032160;28;20045;-60
2021/10/05 01:12:32;;;;;;;32.65;15.30;;;;;;;10.40;100.00;96268.41;5046111;28;20059;-60
2021/10/05 01:15:19;;;;;;;30.33;14.60;;;;;;;10.47;100.00;96266.50;5043109;28;20537;-61
2021/10/05 01:18:05;;;;;;;32.05;15.77;;;;;;;10.45;100.00;96288.00;5046836;28;20409;-62
2021/10/05 01:20:59;;;;;;;37.53;15.43;;;;;;;10.44;100.00;96285.63;5060414;28;20040;-61
2021/10/05 01:23:46;;;;;;;35.92;16.42;;;;;;;10.45;100.00;96281.75;5059413;28;20055;-58
2021/10/05 01:26:32;;;;;;;32.75;15.93;;;;;;;10.52;100.00;96288.06;5048029;28;20055;-61
2021/10/05 01:29:21;;;;;;;34.58;16.25;;;;;;;10.69;100.00;96283.16;5043435;28;20130;-60
2021/10/05 01:32:07;;;;;;;29.70;15.95;;;;;;;10.70;100.00;96287.47;5051410;28;20119;-60
2021/10/05 01:34:52;;;;;;;27.92;14.35;;;;;;;10.62;100.00;96289.34;5049457;28;20048;-61
2021/10/05 01:37:39;;;;;;;31.83;15.70;;;;;;;10.75;100.00;96278.09;5051698;28;20456;-62
2021/10/05 01:40:24;;;;;;;32.50;14.43;;;;;;;10.83;100.00;96272.31;5043397;28;20093;-61
2021/10/05 01:43:10;;;;;;;27.58;14.57;;;;;;;10.80;100.00;96278.53;5044745;28;20135;-60
2021/10/05 01:45:58;;;;;;;30.13;14.70;;;;;;;11.06;100.00;96274.06;5042014;28;20055;-61
2021/10/05 01:48:44;;;;;;;27.20;13.68;;;;;;;11.28;100.00;96286.75;5057714;28;20751;-63
2021/10/05 01:51:30;;;;;;;25.02;14.30;;;;;;;11.25;100.00;96289.47;5049104;28;20049;-60
2021/10/05 01:54:16;;;;;;;28.05;13.60;;;;;;;11.34;100.00;96275.44;5049024;28;20056;-61
2021/10/05 01:57:02;;;;;;;22.65;12.52;;;;;;;11.38;100.00;96278.97;5048811;28;20066;-61
2021/10/05 01:59:48;;;;;;;23.83;12.50;;;;;;;11.43;100.00;96267.66;5049790;28;20040;-58
2021/10/05 02:02:34;;;;;;;30.80;13.95;;;;;;;11.44;100.00;96267.25;5047018;28;20697;-61
2021/10/05 02:05:19;;;;;;;26.20;12.05;;;;;;;11.46;100.00;96273.16;5040624;28;20263;-61
2021/10/05 02:08:05;;;;;;;23.38;12.68;;;;;;;11.40;100.00;96263.72;5051416;28;20543;-61
2021/10/05 02:10:50;;;;;;;25.65;12.50;;;;;;;10.98;100.00;96253.25;5056848;28;20107;-57
2021/10/05 02:13:36;;;;;;;24.50;13.38;;;;;;;10.83;100.00;96249.63;5051176;28;20055;-59
2021/10/05 02:16:22;;;;;;;24.08;13.55;;;;;;;10.90;100.00;96244.19;5031100;28;20057;-59
2021/10/05 02:19:09;;;;;;;24.60;13.80;;;;;;;11.04;100.00;96249.00;5030875;28;20045;-60
2021/10/05 02:21:55;;;;;;;27.05;12.68;;;;;;;11.12;100.00;96252.56;5053227;28;20041;-58
2021/10/05 02:24:42;;;;;;;24.00;13.38;;;;;;;11.11;100.00;96249.06;5052746;28;20114;-60
2021/10/05 02:27:28;;;;;;;24.77;13.05;;;;;;;11.17;100.00;96244.00;5034667;28;20099;-60
2021/10/05 02:30:14;;;;;;;23.83;12.20;;;;;;;11.28;100.00;96239.38;5031407;28;20053;-55
2021/10/05 02:32:59;;;;;;;24.55;12.57;;;;;;;11.20;100.00;96244.03;5047615;28;20040;-60
2021/10/05 02:35:45;;;;;;;24.50;12.70;;;;;;;10.90;100.00;96239.50;5053635;28;20131;-62
2021/10/05 02:38:31;;;;;;;26.90;13.65;;;;;;;10.73;100.00;96245.59;5051268;28;20047;-57
2021/10/05 02:41:17;;;;;;;28.95;14.00;;;;;;;10.74;100.00;96243.69;5055475;28;20193;-61
2021/10/05 02:44:03;;;;;;;27.15;13.48;;;;;;;10.83;100.00;96235.91;5062398;28;20052;-62
2021/10/05 02:46:49;;;;;;;23.65;13.38;;;;;;;11.00;100.00;96227.06;5051143;28;20045;-62
2021/10/05 02:49:36;;;;;;;24.60;13.55;;;;;;;11.15;100.00;96227.16;5066672;28;20646;-62
2021/10/05 02:52:23;;;;;;;26.15;13.18;;;;;;;11.25;100.00;96218.19;5065958;28;20079;-62
2021/10/05 02:55:09;;;;;;;23.98;13.18;;;;;;;11.31;100.00;96213.94;5053747;28;20051;-61
2021/10/05 02:57:55;;;;;;;22.83;12.00;;;;;;;11.43;100.00;96226.50;5061884;28;20037;-62
2021/10/05 03:00:42;;;;;;;21.70;12.02;;;;;;;11.44;100.00;96217.91;5057620;28;20048;-61
2021/10/05 03:03:28;;;;;;;20.83;11.65;;;;;;;11.48;100.00;96218.69;5071393;28;20142;-62
2021/10/05 03:06:13;;;;;;;23.13;13.32;;;;;;;11.46;100.00;96221.03;5068764;28;20048;-62
2021/10/05 03:08:59;;;;;;;21.65;11.65;;;;;;;11.40;100.00;96225.34;5064949;28;20064;-61
2021/10/05 03:11:45;;;;;;;23.45;13.52;;;;;;;11.42;100.00;96209.28;5076209;28;20050;-61
2021/10/05 03:14:30;;;;;;;23.88;12.68;;;;;;;11.41;100.00;96215.94;5058053;28;20043;-60
2021/10/05 03:17:16;;;;;;;21.33;12.85;;;;;;;11.35;100.00;96217.47;5049586;28;20056;-61
2021/10/05 03:20:03;;;;;;;25.80;12.35;;;;;;;11.22;100.00;96224.47;5055950;28;20513;-59
2021/10/05 03:22:49;;;;;;;25.77;12.85;;;;;;;11.20;100.00;96224.03;5052986;28;20060;-60
2021/10/05 03:25:34;;;;;;;24.77;12.98;;;;;;;11.29;100.00;96228.03;5056209;28;20045;-61
2021/10/05 03:28:20;;;;;;;25.52;12.18;;;;;;;11.39;100.00;96222.97;5043429;28;20040;-59
2021/10/05 03:31:06;;;;;;;22.75;12.68;;;;;;;11.31;100.00;96226.84;5050466;28;20461;-61
2021/10/05 03:33:52;;;;;;;21.75;11.82;;;;;;;11.37;100.00;96220.63;5050420;28;20121;-61
2021/10/05 03:36:38;;;;;;;20.83;12.10;;;;;;;11.39;100.00;96233.94;5050315;28;20131;-60
2021/10/05 03:39:23;;;;;;;23.02;11.93;;;;;;;11.39;100.00;96234.72;5044223;28;20813;-62
2021/10/05 03:42:09;;;;;;;21.70;12.80;;;;;;;11.39;100.00;96234.72;5050412;28;20135;-59
2021/10/05 03:44:55;;;;;;;23.33;12.65;;;;;;;11.39;100.00;96226.50;5056020;28;20051;-58
2021/10/05 03:47:41;;;;;;;21.67;12.48;;;;;;;11.43;100.00;96223.78;5054146;28;20086;-58
2021/10/05 03:50:26;;;;;;;25.35;12.48;;;;;;;11.43;100.00;96235.56;5046574;28;20044;-58
2021/10/05 03:53:17;;;;;;;22.02;12.38;;;;;;;11.44;100.00;96228.88;5046178;28;20560;-60
2021/10/05 03:56:03;;;;;;;24.83;12.40;;;;;;;11.43;100.00;96232.81;5044543;28;20045;-62
2021/10/05 03:58:49;;;;;;;26.50;12.88;;;;;;;11.45;100.00;96229.66;5052388;28;20048;-60
2021/10/05 04:01:34;;;;;;;25.02;12.60;;;;;;;11.36;100.00;96234.69;5045032;28;20040;-60
2021/10/05 04:04:20;;;;;;;60.80;31.70;;;;;;;11.23;100.00;96245.19;5048284;28;20105;-60
2021/10/05 04:07:06;;;;;;;26.17;14.25;;;;;;;11.23;100.00;96242.47;5039103;28;20065;-60
2021/10/05 04:09:52;;;;;;;31.92;15.20;;;;;;;11.14;100.00;96237.31;5034496;28;20040;-61
2021/10/05 04:12:37;;;;;;;34.28;14.88;;;;;;;11.00;100.00;96243.50;5051656;28;20116;-63
2021/10/05 04:15:23;;;;;;;24.60;12.77;;;;;;;11.15;100.00;96240.84;5038948;28;20057;-61
2021/10/05 04:18:09;;;;;;;26.23;13.95;;;;;;;11.25;100.00;96246.41;5043054;28;20037;-60
2021/10/05 04:20:55;;;;;;;27.33;13.25;;;;;;;11.22;100.00;96243.66;5063264;28;20045;-62
2021/10/05 04:23:40;;;;;;;26.83;15.23;;;;;;;11.03;100.00;96256.41;5051132;28;20047;-61
2021/10/05 04:26:26;;;;;;;29.75;13.68;;;;;;;10.97;100.00;96247.00;5042727;28;20893;-60
2021/10/05 04:29:12;;;;;;;27.75;13.82;;;;;;;10.89;100.00;96248.91;5050042;28;20036;-62
2021/10/05 04:31:57;;;;;;;27.13;14.95;;;;;;;10.83;100.00;96253.13;5050140;28;20043;-61
2021/10/05 04:34:43;;;;;;;31.63;14.30;;;;;;;11.03;100.00;96239.97;5049270;28;20135;-61
2021/10/05 04:37:29;;;;;;;27.60;14.70;;;;;;;11.12;100.00;96223.19;5030964;28;20093;-61
2021/10/05 04:40:15;;;;;;;27.92;13.55;;;;;;;11.21;100.00;96231.09;5045557;28;20139;-61
2021/10/05 04:43:00;;;;;;;26.58;14.23;;;;;;;11.31;100.00;96235.88;5054519;28;20040;-62
2021/10/05 04:45:46;;;;;;;23.88;12.80;;;;;;;11.35;100.00;96214.72;5055551;28;20048;-61
2021/10/05 04:48:32;;;;;;;26.75;13.65;;;;;;;11.31;100.00;96230.38;5048962;28;20044;-62
2021/10/05 04:51:18;;;;;;;26.70;13.13;;;;;;;11.25;100.00;96227.22;5039218;28;20036;-60
2021/10/05 04:54:03;;;;;;;28.13;14.43;;;;;;;11.28;100.00;96218.22;5054174;28;20465;-62
2021/10/05 04:56:49;;;;;;;24.35;13.98;;;;;;;11.15;100.00;96208.75;5059893;28;20430;-60
2021/10/05 04:59:35;;;;;;;26.67;13.07;;;;;;;11.25;100.00;96215.44;5050565;28;20056;-60
2021/10/05 05:02:20;;;;;;;27.33;13.60;;;;;;;11.17;100.00;96209.16;5050880;28;20039;-59
2021/10/05 05:05:07;;;;;;;24.75;13.45;;;;;;;11.25;100.00;96220.94;5052095;28;20064;-59
2021/10/05 05:07:57;;;;;;;26.92;14.23;;;;;;;11.25;100.00;96219.00;5056580;28;20784;-61
2021/10/05 05:10:43;;;;;;;31.08;15.88;;;;;;;11.26;100.00;96228.78;5053147;28;20626;-60
2021/10/05 05:13:28;;;;;;;26.50;15.82;;;;;;;11.14;100.00;96223.59;5050526;28;20045;-61
2021/10/05 05:16:14;;;;;;;30.13;14.80;;;;;;;11.05;100.00;96226.69;5053121;28;20108;-58
2021/10/05 05:19:00;;;;;;;25.75;13.55;;;;;;;11.07;100.00;96216.13;5055207;28;20046;-61
2021/10/05 05:21:46;;;;;;;26.42;13.80;;;;;;;11.06;100.00;96222.78;5049388;28;20650;-62
2021/10/05 05:24:32;;;;;;;32.58;15.48;;;;;;;11.05;100.00;96215.72;5038061;28;20409;-61
2021/10/05 05:27:18;;;;;;;30.15;15.38;;;;;;;11.03;100.00;96226.28;5033023;28;20154;-61
2021/10/05 05:30:04;;;;;;;39.42;17.98;;;;;;;11.07;100.00;96220.81;5051502;28;20044;-62
2021/10/05 05:32:50;;;;;;;31.33;17.27;;;;;;;11.01;100.00;96225.88;5049770;28;20040;-61
2021/10/05 05:35:36;;;;;;;30.08;15.65;;;;;;;11.16;100.00;96224.00;5040100;28;20086;-62
2021/10/05 05:38:23;;;;;;;30.08;16.02;;;;;;;11.31;100.00;96235.88;5045533;28;20897;-60
2021/10/05 05:41:08;;;;;;;28.52;15.50;;;;;;;11.30;100.00;96228.78;5032939;28;20048;-58
2021/10/05 05:43:54;;;;;;;29.23;14.90;;;;;;;11.39;100.00;96229.22;5038645;28;20048;-60
2021/10/05 05:46:41;;;;;;;28.35;14.68;;;;;;;11.29;100.00;96232.72;5049843;28;20036;-60
2021/10/05 05:49:27;;;;;;;23.23;14.27;;;;;;;11.16;100.00;96234.97;5041582;28;20132;-61
2021/10/05 05:52:12;;;;;;;27.60;13.15;;;;;;;11.29;100.00;96232.72;5051648;28;20044;-60
2021/10/05 05:54:59;;;;;;;26.70;14.50;;;;;;;11.35;100.00;96222.94;5054252;28;20620;-59
2021/10/05 05:57:49;;;;;;;26.13;14.85;;;;;;;11.55;100.00;96217.19;5037863;28;20040;-60
2021/10/05 06:00:34;;;;;;;24.77;14.20;;;;;;;11.58;100.00;96221.91;5036236;28;20525;-59
2021/10/05 06:03:20;;;;;;;23.33;12.90;;;;;;;11.52;100.00;96221.47;5044228;28;20401;-60
2021/10/05 06:06:06;;;;;;;27.00;13.35;;;;;;;11.56;100.00;96219.53;5050744;28;20045;-60
2021/10/05 06:08:52;;;;;;;27.83;13.43;;;;;;;11.59;100.00;96213.28;5057602;28;20127;-60
2021/10/05 06:11:40;;;;;;;26.35;12.95;;;;;;;11.60;100.00;96214.84;5052247;28;20171;-61
2021/10/05 06:14:28;;;;;;;23.63;12.70;;;;;;;11.55;100.00;96215.22;5031835;28;20045;-61
2021/10/05 06:17:15;;;;;;;23.92;13.90;;;;;;;11.35;100.00;96222.19;5043897;28;20080;-60
2021/10/05 06:20:01;;;;;;;24.77;13.18;;;;;;;11.27;100.00;96226.81;5058672;28;20198;-56
2021/10/05 06:22:47;;;;;;;23.30;12.77;;;;;;;11.45;100.00;96221.44;5035559;28;20173;-60
2021/10/05 06:25:33;;;;;;;27.98;13.95;;;;;;;11.45;100.00;96226.91;5058653;28;20040;-60
2021/10/05 06:28:19;;;;;;;22.75;12.85;;;;;;;11.50;100.00;96221.06;5053135;28;20048;-59
2021/10/05 06:31:05;;;;;;;26.85;13.25;;;;;;;11.36;100.00;96221.00;5054489;28;20063;-62
2021/10/05 06:33:51;;;;;;;25.02;13.70;;;;;;;11.39;100.00;96217.50;5061030;28;20041;-59
2021/10/05 06:36:36;;;;;;;32.10;14.73;;;;;;;11.24;100.00;96230.34;5055664;28;20057;-61
2021/10/05 06:39:22;;;;;;;31.15;14.02;;;;;;;11.11;100.00;96229.88;5044485;28;20524;-63
2021/10/05 06:42:08;;;;;;;25.83;12.98;;;;;;;11.18;100.00;96218.94;5060039;28;20048;-62
2021/10/05 06:44:53;;;;;;;27.45;13.50;;;;;;;11.35;100.00;96220.22;5060231;28;20045;-62
2021/10/05 06:47:39;;;;;;;23.05;11.43;;;;;;;11.54;100.00;96218.34;5057462;28;20414;-62
2021/10/05 06:50:26;;;;;;;23.70;13.50;;;;;;;11.41;100.00;96220.63;5064140;28;20048;-62
2021/10/05 06:53:16;;;;;;;22.10;12.65;;;;;;;11.28;100.00;96220.94;5063454;28;20047;-65
2021/10/05 06:56:01;;;;;;;23.65;12.25;;;;;;;11.34;100.00;96215.88;5072555;28;20052;-64
2021/10/05 06:58:47;;;;;;;26.15;12.00;;;;;;;11.50;100.00;96209.31;5063904;28;20043;-61
2021/10/05 07:01:33;;;;;;;23.73;11.70;;;;;;;11.59;100.00;96218.75;5053925;28;20106;-63
2021/10/05 07:04:19;;;;;;;20.20;11.23;;;;;;;11.69;100.00;96217.25;5032306;28;20036;-61
2021/10/05 07:07:04;;;;;;;19.25;10.43;;;;;;;11.70;100.00;96216.06;5040716;28;20493;-62
2021/10/05 07:09:50;;;;;;;23.52;10.85;;;;;;;11.82;100.00;96218.47;5042432;28;20481;-60
2021/10/05 07:12:36;;;;;;;21.83;11.15;;;;;;;11.70;100.00;96213.31;5048928;28;20045;-62
2021/10/05 07:15:22;;;;;;;22.92;11.13;;;;;;;11.71;100.00;96231.38;5045759;28;20053;-60
2021/10/05 07:18:08;;;;;;;20.35;11.85;;;;;;;11.59;100.00;96229.72;5042797;28;20127;-61
2021/10/05 07:20:54;;;;;;;18.02;10.68;;;;;;;11.65;100.00;96211.75;5038227;28;20048;-62
2021/10/05 07:23:39;;;;;;;19.38;11.05;;;;;;;11.79;100.00;96219.25;5054096;28;20448;-63
2021/10/05 07:26:26;;;;;;;21.38;10.45;;;;;;;12.17;100.00;96216.25;5056142;28;20113;-61
2021/10/05 07:29:13;;;;;;;20.35;10.10;;;;;;;12.54;100.00;96221.41;5053284;28;20067;-62
2021/10/05 07:31:58;;;;;;;15.45;8.63;;;;;;;12.82;100.00;96217.91;5051090;28;20051;-60
2021/10/05 07:34:44;;;;;;;14.85;8.10;;;;;;;12.86;100.00;96209.66;5044659;28;20131;-60
2021/10/05 07:37:30;;;;;;;13.07;7.00;;;;;;;12.81;100.00;96207.28;5053378;28;20036;-61
2021/10/05 07:40:18;;;;;;;15.02;8.73;;;;;;;12.88;100.00;96195.53;5048353;28;20552;-61
2021/10/05 07:43:04;;;;;;;17.52;7.13;;;;;;;12.77;100.00;96196.31;5046225;28;20048;-62
2021/10/05 07:45:52;;;;;;;9.85;6.10;;;;;;;12.65;100.00;96198.66;5047377;28;20068;-62
2021/10/05 07:48:38;;;;;;;9.25;5.57;;;;;;;12.89;100.00;96184.13;5046615;28;20053;-62
2021/10/05 07:51:24;;;;;;;11.90;6.00;;;;;;;13.12;100.00;96182.91;5045574;28;20523;-61
2021/10/05 07:54:10;;;;;;;10.07;5.57;;;;;;;13.12;100.00;96177.41;5044607;28;20485;-63
2021/10/05 07:56:55;;;;;;;9.57;5.75;;;;;;;13.45;100.00;96170.69;5050779;28;20084;-61
2021/10/05 07:59:41;;;;;;;9.98;5.50;;;;;;;13.92;100.00;96171.25;5051812;28;20118;-62
2021/10/05 08:02:27;;;;;;;8.77;5.05;;;;;;;14.17;99.13;96172.28;5046743;28;20032;-60
2021/10/05 08:05:15;;;;;;;8.68;5.30;;;;;;;14.60;99.44;96166.50;5049675;28;20413;-61
2021/10/05 08:08:08;;;;;;;7.30;4.18;;;;;;;14.71;96.12;96172.72;5055345;28;20130;-62
2021/10/05 08:10:53;;;;;;;7.20;4.35;;;;;;;14.78;96.27;96183.69;5051900;28;20055;-58
2021/10/05 08:13:39;;;;;;;7.93;4.22;;;;;;;14.66;94.63;96179.47;5046562;28;20089;-60
2021/10/05 08:16:30;;;;;;;10.52;4.75;;;;;;;14.38;94.73;96177.66;5048175;28;20049;-61
2021/10/05 08:19:16;;;;;;;7.35;4.38;;;;;;;14.29;97.67;96169.84;5038568;28;20040;-62
2021/10/05 08:22:02;;;;;;;6.00;3.40;;;;;;;14.55;95.70;96170.47;5044848;28;20043;-61
2021/10/05 08:24:48;;;;;;;7.13;3.35;;;;;;;14.65;95.49;96183.38;5045505;28;20071;-60
2021/10/05 08:27:34;;;;;;;5.05;3.22;;;;;;;14.63;93.16;96182.25;5054082;28;20048;-61
2021/10/05 08:30:20;;;;;;;5.80;3.40;;;;;;;14.30;98.10;96182.44;5052703;28;20477;-61
2021/10/05 08:33:07;;;;;;;6.63;3.67;;;;;;;14.28;96.99;96182.06;5032669;28;20625;-61
2021/10/05 08:35:53;;;;;;;7.40;4.20;;;;;;;14.71;94.26;96190.06;5038977;28;20056;-61
2021/10/05 08:38:40;;;;;;;7.00;3.58;;;;;;;14.79;92.74;96201.03;5049018;28;20048;-60
2021/10/05 08:41:26;;;;;;;5.88;2.90;;;;;;;14.13;98.22;96199.84;5041131;28;20051;-60
2021/10/05 08:44:13;;;;;;;5.85;3.03;;;;;;;14.21;99.05;96197.84;5045747;28;20072;-62
2021/10/05 08:46:58;;;;;;;6.63;3.60;;;;;;;14.51;97.44;96205.50;5054339;28;20699;-60
2021/10/05 08:49:45;;;;;;;7.50;3.50;;;;;;;14.59;96.78;96198.81;5053893;28;20052;-60
2021/10/05 08:52:33;;;;;;;5.53;3.03;;;;;;;14.72;96.07;96204.59;5051313;28;20064;-59
2021/10/05 08:55:19;;;;;;;4.72;3.03;;;;;;;14.56;94.82;96207.06;5033762;28;20055;-61
2021/10/05 08:58:04;;;;;;;4.13;2.42;;;;;;;14.63;93.81;96210.56;5046766;28;20472;-61
2021/10/05 09:00:53;;;;;;;4.65;2.80;;;;;;;14.43;95.17;96207.53;5053726;28;20120;-61
2021/10/05 09:03:50;;;;;;;5.10;2.35;;;;;;;14.36;95.47;96209.56;5052433;28;20053;-61
2021/10/05 09:06:37;;;;;;;5.60;2.30;;;;;;;13.61;99.55;96221.72;5052221;28;20036;-61
2021/10/05 09:09:22;;;;;;;6.50;2.80;;;;;;;13.53;100.00;96218.19;5046915;28;20511;-59
2021/10/05 09:12:08;;;;;;;4.97;2.55;;;;;;;13.15;100.00;96213.16;5051432;28;20131;-59
2021/10/05 09:14:55;;;;;;;7.00;2.88;;;;;;;13.28;100.00;96207.22;5055359;28;20053;-60
2021/10/05 09:17:41;;;;;;;3.97;2.20;;;;;;;13.16;100.00;96203.72;5054546;28;20072;-61
2021/10/05 09:20:30;;;;;;;5.00;2.40;;;;;;;13.31;100.00;96207.25;5051588;28;20121;-61
2021/10/05 09:23:17;;;;;;;7.40;4.25;;;;;;;13.47;100.00;96209.59;5047349;28;20417;-61
2021/10/05 09:26:03;;;;;;;5.55;3.50;;;;;;;13.45;100.00;96211.13;5045727;28;20521;-61
2021/10/05 09:28:48;;;;;;;5.53;2.90;;;;;;;13.62;100.00;96204.03;5055063;28;20049;-60
2021/10/05 09:31:54;;;;;;;8.07;2.50;;;;;;;13.68;100.00;96205.19;5053686;28;20459;-61
2021/10/05 09:34:51;;;;;;;4.28;2.50;;;;;;;13.91;100.00;96199.19;5051890;28;20032;-62
2021/10/05 09:37:37;;;;;;;5.00;2.38;;;;;;;13.80;99.26;96207.50;5054500;28;20044;-61
2021/10/05 09:40:23;;;;;;;4.60;2.20;;;;;;;14.00;97.17;96205.03;5049620;28;20513;-60
2021/10/05 09:43:21;;;;;;;3.30;1.95;;;;;;;14.12;96.00;96210.09;5048454;28;20041;-62
2021/10/05 09:46:15;;;;;;;3.45;1.80;;;;;;;13.99;95.46;96199.94;5046968;28;20125;-63
2021/10/05 09:49:10;;;;;;;4.55;1.75;;;;;;;14.50;92.47;96206.72;5053523;28;20453;-60
2021/10/05 09:52:01;;;;;;;3.70;1.77;;;;;;;14.50;92.62;96206.72;5055212;28;20048;-62
2021/10/05 09:54:46;;;;;;;3.67;2.28;;;;;;;14.03;92.82;96204.25;5052474;28;20049;-61
2021/10/05 09:57:32;;;;;;;3.15;1.90;;;;;;;13.84;94.03;96205.50;5067240;28;20037;-60
2021/10/05 10:00:20;;;;;;;2.17;1.48;;;;;;;14.24;91.99;96206.09;5048410;28;20036;-60
2021/10/05 10:03:07;;;;;;;2.80;1.67;;;;;;;14.32;92.66;96212.34;5049532;28;20047;-61
2021/10/05 10:05:53;;;;;;;4.38;2.35;;;;;;;14.57;92.39;96205.88;5055908;28;20048;-63
2021/10/05 10:08:42;;;;;;;3.45;2.22;;;;;;;14.72;89.85;96212.88;5050919;28;20376;-60
2021/10/05 10:11:27;;;;;;;2.30;1.50;;;;;;;15.05;86.68;96208.69;5047664;28;20044;-60
2021/10/05 10:14:17;;;;;;;2.50;1.80;;;;;;;14.98;87.46;96207.94;5047626;28;20110;-61
2021/10/05 10:17:03;;;;;;;4.07;1.20;;;;;;;15.45;84.58;96217.34;5050128;28;20079;-60
2021/10/05 10:19:49;;;;;;;2.53;1.30;;;;;;;15.52;84.63;96229.47;5052259;28;20638;-63
2021/10/05 10:22:43;;;;;;;1.83;1.02;;;;;;;15.47;82.32;96226.00;5052110;28;20048;-62
2021/10/05 10:25:32;;;;;;;1.10;0.88;;;;;;;15.63;84.86;96222.66;5048536;28;20040;-61
2021/10/05 10:28:17;;;;;;;2.63;1.20;;;;;;;15.52;84.51;96219.25;5050329;28;20066;-62
2021/10/05 10:31:12;;;;;;;1.98;1.00;;;;;;;15.50;82.68;96218.84;5045458;28;20037;-61
2021/10/05 10:33:58;;;;;;;3.97;1.05;;;;;;;15.44;81.98;96228.78;5049415;28;20048;-62
2021/10/05 10:36:44;;;;;;;2.05;1.20;;;;;;;15.33;83.59;96223.38;5047943;28;20164;-60
2021/10/05 10:39:37;;;;;;;1.95;0.80;;;;;;;15.33;83.24;96222.59;5046875;28;20205;-60
2021/10/05 10:42:28;;;;;;;2.05;1.05;;;;;;;15.04;84.31;96220.09;5046421;28;20052;-62
2021/10/05 10:45:19;;;;;;;1.42;1.00;;;;;;;15.01;84.81;96229.19;5043655;28;20040;-61
2021/10/05 10:48:05;;;;;;;2.47;1.48;;;;;;;14.51;87.90;96233.06;5047915;28;20043;-61
2021/10/05 10:50:51;;;;;;;6.88;1.98;;;;;;;14.48;87.72;96231.91;5051646;28;20068;-61
2021/10/05 10:53:39;;;;;;;3.05;1.58;;;;;;;14.43;87.68;96232.34;5053824;28;20445;-59
2021/10/05 10:56:33;;;;;;;1.92;1.30;;;;;;;14.64;86.96;96223.19;5048656;28;20126;-61
2021/10/05 10:59:19;;;;;;;3.53;1.70;;;;;;;14.27;89.03;96227.31;5049081;28;20040;-61
2021/10/05 11:02:06;;;;;;;3.22;1.48;;;;;;;14.68;87.58;96223.16;5046173;28;20080;-62
2021/10/05 11:04:52;;;;;;;3.05;1.60;;;;;;;14.62;89.87;96231.06;5046229;28;20109;-60
2021/10/05 11:07:38;;;;;;;2.45;1.67;;;;;;;14.82;88.60;96223.03;5046285;28;20547;-61
2021/10/05 11:10:27;;;;;;;2.45;1.70;;;;;;;14.81;90.17;96226.97;5045357;28;20068;-60
2021/10/05 11:13:12;;;;;;;8.07;7.22;;;;;;;15.08;87.38;96229.13;5050215;28;20181;-62
2021/10/05 11:15:58;;;;;;;65.40;33.95;;;;;;;15.27;86.61;96223.03;5051699;28;20079;-61
2021/10/05 11:18:44;;;;;;;10.57;5.63;;;;;;;14.86;90.43;96212.00;5045647;28;20533;-59
2021/10/05 11:21:36;;;;;;;5.70;2.40;;;;;;;14.71;92.08;96214.84;5038139;28;20063;-60
2021/10/05 11:24:34;;;;;;;5.38;3.20;;;;;;;14.60;93.49;96216.13;5039291;28;20366;-59
2021/10/05 11:27:22;;;;;;;14.55;7.25;;;;;;;14.78;94.35;96207.72;5043126;28;20533;-58
2021/10/05 11:30:08;;;;;;;13.55;7.65;;;;;;;14.77;93.29;96206.16;5047815;28;20127;-62
2021/10/05 11:32:54;;;;;;;7.53;4.10;;;;;;;15.05;92.01;96205.13;5050951;28;20040;-59
2021/10/05 11:35:40;;;;;;;3.15;1.70;;;;;;;14.63;95.16;96201.53;5050078;28;20048;-58
2021/10/05 11:38:44;;;;;;;2.88;1.67;;;;;;;14.48;94.70;96209.09;5045746;28;20122;-60
2021/10/05 11:41:43;;;;;;;9.07;5.43;;;;;;;14.61;94.82;96206.66;5053178;28;20072;-60
2021/10/05 11:44:29;;;;;;;4.43;1.80;;;;;;;14.47;94.81;96205.53;5048743;28;21291;-63
2021/10/05 11:47:20;;;;;;;3.40;1.80;;;;;;;14.64;93.85;96203.09;5040548;28;20040;-61
2021/10/05 11:50:08;;;;;;;1.90;1.40;;;;;;;14.85;92.54;96202.91;5051189;28;20049;-60
2021/10/05 11:52:54;;;;;;;5.40;2.03;;;;;;;15.23;89.75;96207.69;5053143;28;20143;-59
2021/10/05 11:55:39;;;;;;;2.60;1.48;;;;;;;15.10;89.11;96204.69;5054362;28;20393;-60
2021/10/05 11:58:25;;;;;;;1.75;1.15;;;;;;;14.89;93.42;96198.19;5055038;28;20526;-60
2021/10/05 12:01:13;;;;;;;2.25;1.45;;;;;;;15.04;91.27;96195.28;5050416;28;20080;-60
2021/10/05 12:04:08;;;;;;;2.30;1.38;;;;;;;14.96;94.53;96194.56;5051683;28;20041;-58
2021/10/05 12:07:00;;;;;;;13.98;7.50;;;;;;;14.79;93.83;96188.00;5042610;28;20524;-59
2021/10/05 12:10:07;;;;;;;2.92;1.95;;;;;;;14.56;94.96;96193.28;5054241;28;20045;-58
2021/10/05 12:12:53;;;;;;;2.40;1.60;;;;;;;14.20;97.37;96188.03;5047789;28;20726;-59
2021/10/05 12:15:39;;;;;;;3.75;1.85;;;;;;;14.01;97.76;96187.34;5056900;28;20055;-59
2021/10/05 12:18:24;;;;;;;4.80;3.38;;;;;;;14.50;95.96;96190.97;5052009;28;20036;-60
2021/10/05 12:21:12;;;;;;;3.80;2.15;;;;;;;14.59;96.96;96198.81;5052586;28;20044;-58
2021/10/05 12:24:01;;;;;;;3.10;1.70;;;;;;;14.55;98.96;96198.03;5055327;28;20136;-59
2021/10/05 12:26:51;;;;;;;3.33;1.83;;;;;;;14.77;99.07;96201.41;5037766;28;20043;-58
2021/10/05 12:29:48;;;;;;;11.50;6.53;;;;;;;14.56;99.17;96209.81;5047165;28;20040;-60
2021/10/05 12:32:48;;;;;;;3.78;2.20;;;;;;;14.64;99.37;96203.09;5052878;28;20045;-58
2021/10/05 12:35:38;;;;;;;3.63;1.75;;;;;;;14.51;100.00;96202.75;5033829;28;20049;-59
2021/10/05 12:38:24;;;;;;;2.33;1.70;;;;;;;14.56;100.00;96210.59;5038699;28;20574;-62
2021/10/05 12:41:10;;;;;;;2.97;2.00;;;;;;;14.52;100.00;96207.09;5041800;28;20037;-61
2021/10/05 12:43:55;;;;;;;5.03;2.13;;;;;;;14.45;100.00;96210.66;5038153;28;20538;-61
2021/10/05 12:46:51;;;;;;;4.15;2.35;;;;;;;14.24;100.00;96208.06;5039145;28;20041;-61